createdAt,value
2023-01-13T00:00:38.286Z,87.78
2023-01-13T00:03:06.461Z,87.01
2023-01-13T00:05:34.620Z,86.92
2023-01-13T00:08:04.878Z,86.51
2023-01-13T00:10:35.289Z,86.60
2023-01-13T00:13:06.149Z,86.84
2023-01-13T00:15:34.743Z,86.65
2023-01-13T00:18:02.749Z,86.80
2023-01-13T00:20:30.752Z,86.65
2023-01-13T00:23:00.137Z,86.71
2023-01-13T00:25:28.324Z,86.11
2023-01-13T00:27:57.720Z,86.15
2023-01-13T00:30:25.698Z,86.38
2023-01-13T00:32:54.170Z,86.61
2023-01-13T00:35:22.350Z,87.14
2023-01-13T00:37:50.385Z,86.17
2023-01-13T00:40:18.860Z,86.70
2023-01-13T00:43:04.339Z,86.38
2023-01-13T00:45:34.135Z,86.21
2023-01-13T00:48:01.900Z,86.49
2023-01-13T00:50:30.245Z,86.36
2023-01-13T00:53:01.440Z,86.29
2023-01-13T00:55:33.180Z,86.30
2023-01-13T00:58:03.657Z,86.35
2023-01-13T01:00:34.188Z,86.71
2023-01-13T01:03:02.291Z,86.42
2023-01-13T01:05:30.491Z,86.23
2023-01-13T01:07:58.609Z,86.39
2023-01-13T01:10:27.136Z,86.61
2023-01-13T01:12:55.215Z,85.93
2023-01-13T01:15:23.350Z,86.38
2023-01-13T01:17:52.703Z,85.78
2023-01-13T01:20:20.856Z,85.50
2023-01-13T01:22:48.929Z,85.53
2023-01-13T01:25:17.090Z,86.05
2023-01-13T01:27:45.029Z,86.10
2023-01-13T01:30:14.831Z,85.33
2023-01-13T01:32:42.865Z,85.53
2023-01-13T01:35:12.383Z,85.40
2023-01-13T01:37:40.446Z,86.17
2023-01-13T01:40:11.702Z,85.45
2023-01-13T01:42:57.311Z,85.34
2023-01-13T01:45:30.590Z,84.97
2023-01-13T01:48:05.537Z,85.62
2023-01-13T01:50:36.025Z,85.23
2023-01-13T01:53:12.186Z,85.23
2023-01-13T01:55:41.258Z,84.83
2023-01-13T01:58:16.070Z,84.57
2023-01-13T02:00:44.248Z,84.69
2023-01-13T02:03:12.762Z,83.95
2023-01-13T02:05:42.452Z,83.90
2023-01-13T02:08:13.323Z,83.83
2023-01-13T02:10:44.460Z,83.95
2023-01-13T02:13:14.051Z,83.90
2023-01-13T02:15:56.000Z,83.77
2023-01-13T02:18:45.650Z,84.37
2023-01-13T02:22:08.565Z,84.04
2023-01-13T02:25:24.841Z,83.53
2023-01-13T02:28:21.576Z,83.71
2023-01-13T02:31:15.291Z,84.20
2023-01-13T02:34:01.963Z,84.61
2023-01-13T02:36:40.736Z,84.42
2023-01-13T02:39:20.160Z,84.21
2023-01-13T02:42:15.405Z,83.87
2023-01-13T02:44:49.689Z,84.28
2023-01-13T02:47:23.881Z,83.76
2023-01-13T02:49:59.457Z,83.54
2023-01-13T02:52:34.342Z,83.20
2023-01-13T02:55:10.025Z,83.21
2023-01-13T02:57:40.747Z,82.76
2023-01-13T03:00:14.566Z,82.86
2023-01-13T03:02:43.972Z,82.93
2023-01-13T03:05:17.411Z,83.23
2023-01-13T03:08:33.971Z,82.72
2023-01-13T03:11:08.514Z,83.12
2023-01-13T03:14:07.761Z,83.21
2023-01-13T03:17:16.778Z,82.73
2023-01-13T03:20:03.044Z,82.25
2023-01-13T03:22:39.017Z,82.42
2023-01-13T03:25:16.872Z,82.51
2023-01-13T03:27:54.573Z,82.46
2023-01-13T03:30:30.860Z,81.90
2023-01-13T03:33:06.348Z,81.85
2023-01-13T03:35:43.320Z,81.81
2023-01-13T03:38:17.051Z,81.41
2023-01-13T03:40:51.779Z,81.14
2023-01-13T03:43:45.209Z,81.20
2023-01-13T03:46:21.720Z,81.01
2023-01-13T03:48:58.840Z,80.77
2023-01-13T03:51:34.901Z,81.47
2023-01-13T03:54:09.214Z,80.75
2023-01-13T03:56:43.849Z,80.80
2023-01-13T03:59:18.469Z,80.57
2023-01-13T04:01:58.350Z,80.49
2023-01-13T04:04:35.514Z,81.03
2023-01-13T04:07:21.642Z,80.21
2023-01-13T04:09:57.187Z,80.65
2023-01-13T04:12:51.081Z,80.09
2023-01-13T04:15:22.819Z,80.05
2023-01-13T04:17:51.952Z,80.12
2023-01-13T04:20:20.094Z,80.93
2023-01-13T04:22:49.448Z,81.35
2023-01-13T04:25:17.649Z,81.31
2023-01-13T04:27:45.704Z,81.05
2023-01-13T04:30:14.416Z,81.21
2023-01-13T04:32:42.490Z,81.76
2023-01-13T04:35:10.906Z,81.77
2023-01-13T04:37:38.841Z,82.18
2023-01-13T04:40:10.442Z,82.18
2023-01-13T04:42:38.436Z,82.56
2023-01-13T04:45:07.665Z,82.30
2023-01-13T04:47:35.514Z,82.09
2023-01-13T04:50:03.474Z,82.26
2023-01-13T04:52:31.542Z,82.85
2023-01-13T04:54:59.503Z,82.64
2023-01-13T04:57:28.863Z,82.14
2023-01-13T04:59:56.804Z,82.21
2023-01-13T05:02:24.715Z,81.86
2023-01-13T05:04:52.716Z,81.71
2023-01-13T05:07:20.760Z,81.73
2023-01-13T05:09:48.713Z,81.88
2023-01-13T05:12:34.152Z,81.36
2023-01-13T05:15:21.325Z,80.86
2023-01-13T05:17:49.822Z,81.27
2023-01-13T05:20:18.789Z,82.59
2023-01-13T05:23:04.074Z,83.43
2023-01-13T05:25:32.166Z,85.64
2023-01-13T05:28:01.155Z,88.13
2023-01-13T05:30:33.042Z,89.15
2023-01-13T05:33:01.053Z,88.52
2023-01-13T05:35:31.941Z,88.62
2023-01-13T05:37:59.948Z,88.93
2023-01-13T05:40:45.502Z,88.29
2023-01-13T05:43:22.433Z,89.21
2023-01-13T05:45:56.915Z,90.05
2023-01-13T05:48:27.698Z,90.39
2023-01-13T05:50:56.105Z,90.51
2023-01-13T05:53:27.300Z,91.05
2023-01-13T05:55:55.521Z,91.21
2023-01-13T05:58:26.356Z,91.07
2023-01-13T06:01:02.120Z,90.63
2023-01-13T06:03:30.083Z,91.26
2023-01-13T06:06:01.558Z,90.98
2023-01-13T06:08:30.639Z,91.24
2023-01-13T06:10:58.898Z,91.33
2023-01-13T06:13:27.685Z,91.11
2023-01-13T06:15:59.647Z,91.38
2023-01-13T06:18:28.677Z,91.09
2023-01-13T06:20:56.817Z,92.00
2023-01-13T06:23:25.281Z,92.41
2023-01-13T06:26:03.926Z,91.88
2023-01-13T06:28:33.173Z,91.83
2023-01-13T06:31:08.477Z,92.33
2023-01-13T06:33:40.775Z,92.51
2023-01-13T06:36:17.388Z,92.79
2023-01-13T06:38:51.037Z,92.69
2023-01-13T06:41:40.823Z,93.26
2023-01-13T06:44:07.789Z,93.20
2023-01-13T06:46:37.342Z,93.13
2023-01-13T06:49:08.062Z,93.24
2023-01-13T06:51:36.165Z,93.25
2023-01-13T06:54:04.290Z,93.16
2023-01-13T06:56:32.301Z,93.53
2023-01-13T06:59:00.234Z,93.11
2023-01-13T07:01:28.279Z,92.48
2023-01-13T07:03:58.134Z,91.80
2023-01-13T07:06:26.109Z,91.87
2023-01-13T07:08:54.072Z,91.40
2023-01-13T07:11:22.055Z,91.83
2023-01-13T07:14:07.502Z,91.54
2023-01-13T07:16:35.617Z,91.27
2023-01-13T07:19:06.116Z,91.19
2023-01-13T07:21:36.433Z,91.59
2023-01-13T07:24:07.225Z,90.81
2023-01-13T07:26:35.201Z,91.15
2023-01-13T07:29:03.248Z,90.25
2023-01-13T07:31:31.283Z,90.11
2023-01-13T07:33:59.911Z,88.49
2023-01-13T07:36:29.303Z,87.91
2023-01-13T07:38:58.987Z,88.19
2023-01-13T07:41:44.447Z,88.25
2023-01-13T07:44:12.431Z,88.36
2023-01-13T07:46:42.878Z,88.28
2023-01-13T07:49:10.969Z,87.59
2023-01-13T07:51:41.267Z,87.20
2023-01-13T07:54:09.257Z,87.18
2023-01-13T07:56:37.243Z,86.86
2023-01-13T07:59:05.182Z,87.62
2023-01-13T08:01:33.345Z,86.23
2023-01-13T08:04:01.468Z,86.57
2023-01-13T08:06:29.471Z,85.35
2023-01-13T08:08:59.755Z,85.08
2023-01-13T08:11:29.949Z,83.53
2023-01-13T08:13:58.464Z,82.83
2023-01-13T08:16:26.843Z,82.86
2023-01-13T08:18:54.971Z,83.05
2023-01-13T08:21:22.896Z,83.21
2023-01-13T08:23:50.857Z,82.54
2023-01-13T08:26:20.460Z,82.10
2023-01-13T08:28:48.416Z,82.84
2023-01-13T08:31:19.778Z,82.86
2023-01-13T08:33:47.877Z,82.06
2023-01-13T08:36:16.287Z,82.61
2023-01-13T08:38:44.291Z,82.43
2023-01-13T08:41:15.292Z,81.66
2023-01-13T08:43:44.657Z,82.42
2023-01-13T08:46:13.103Z,82.32
2023-01-13T08:48:41.138Z,82.71
2023-01-13T08:51:10.878Z,82.27
2023-01-13T08:53:38.802Z,82.24
2023-01-13T08:56:11.558Z,82.29
2023-01-13T08:58:40.668Z,82.09
2023-01-13T09:01:14.786Z,81.91
2023-01-13T09:03:42.838Z,82.31
2023-01-13T09:06:16.966Z,82.32
2023-01-13T09:08:45.169Z,81.80
2023-01-13T09:11:37.590Z,81.36
2023-01-13T09:14:07.508Z,82.48
2023-01-13T09:16:36.819Z,81.48
2023-01-13T09:19:10.864Z,81.87
2023-01-13T09:21:38.908Z,81.12
2023-01-13T09:24:13.441Z,80.35
2023-01-13T09:26:41.432Z,80.04
2023-01-13T09:29:09.503Z,79.75
2023-01-13T09:31:38.987Z,79.17
2023-01-13T09:34:30.008Z,78.67
2023-01-13T09:36:58.021Z,78.42
2023-01-13T09:39:29.728Z,78.69
2023-01-13T09:42:22.292Z,78.38
2023-01-13T09:44:59.275Z,79.21
2023-01-13T09:47:34.915Z,79.32
2023-01-13T09:50:23.018Z,79.57
2023-01-13T09:52:53.701Z,79.55
2023-01-13T09:55:33.878Z,79.27
2023-01-13T09:58:08.846Z,79.28
2023-01-13T10:00:42.117Z,79.47
2023-01-13T10:03:22.967Z,79.69
2023-01-13T10:06:00.436Z,79.88
2023-01-13T10:08:32.962Z,78.90
2023-01-13T10:11:24.952Z,78.86
2023-01-13T10:13:59.716Z,78.59
2023-01-13T10:16:42.223Z,78.76
2023-01-13T10:19:22.668Z,78.35
2023-01-13T10:22:33.718Z,78.33
2023-01-13T10:25:33.082Z,77.25
2023-01-13T10:28:11.093Z,76.78
2023-01-13T10:30:49.907Z,75.96
2023-01-13T10:33:21.562Z,76.05
2023-01-13T10:35:56.552Z,75.77
2023-01-13T10:38:31.530Z,75.56
2023-01-13T10:41:01.890Z,75.39
2023-01-13T10:43:31.667Z,75.15
2023-01-13T10:46:04.529Z,74.59
2023-01-13T10:48:40.520Z,74.91
2023-01-13T10:51:23.839Z,74.63
2023-01-13T10:53:56.535Z,74.65
2023-01-13T10:56:29.364Z,74.88
2023-01-13T10:59:23.339Z,73.27
2023-01-13T11:02:13.105Z,73.03
2023-01-13T11:05:04.850Z,73.38
2023-01-13T11:07:39.424Z,73.04
2023-01-13T11:10:23.511Z,72.31
2023-01-13T11:13:14.603Z,72.35
2023-01-13T11:15:53.725Z,72.35
2023-01-13T11:18:36.676Z,72.63
2023-01-13T11:21:23.270Z,72.70
2023-01-13T11:24:05.647Z,71.97
2023-01-13T11:26:44.914Z,71.85
2023-01-13T11:29:21.718Z,71.65
2023-01-13T11:31:55.364Z,70.23
2023-01-13T11:34:33.879Z,70.31
2023-01-13T11:37:09.766Z,70.38
2023-01-13T11:39:55.445Z,69.73
2023-01-13T11:42:31.362Z,69.57
2023-01-13T11:45:17.704Z,69.80
2023-01-13T11:47:53.526Z,69.82
2023-01-13T11:50:34.136Z,69.15
2023-01-13T11:53:33.327Z,68.64
2023-01-13T11:56:24.524Z,68.78
2023-01-13T11:59:28.632Z,68.34
2023-01-13T12:02:23.283Z,67.01
2023-01-13T12:05:05.795Z,66.09
2023-01-13T12:07:45.298Z,66.41
2023-01-13T12:10:29.909Z,66.44
2023-01-13T12:13:18.627Z,65.84
2023-01-13T12:16:08.725Z,65.07
2023-01-13T12:19:18.827Z,64.95
2023-01-13T12:22:04.495Z,64.44
2023-01-13T12:24:42.315Z,63.67
2023-01-13T12:27:21.965Z,63.32
2023-01-13T12:29:55.329Z,62.58
2023-01-13T12:32:35.160Z,62.04
2023-01-13T12:35:24.486Z,61.59
2023-01-13T12:38:02.574Z,60.69
2023-01-13T12:40:48.649Z,59.79
2023-01-13T12:43:38.035Z,59.28
2023-01-13T12:46:57.113Z,59.46
2023-01-13T12:49:29.029Z,58.94
2023-01-13T12:52:13.919Z,59.07
2023-01-13T12:55:08.825Z,60.23
2023-01-13T12:57:39.556Z,59.39
2023-01-13T13:00:17.064Z,59.89
2023-01-13T13:03:30.190Z,60.22
2023-01-13T13:06:14.959Z,60.16
2023-01-13T13:09:04.400Z,60.41
2023-01-13T13:12:17.148Z,60.43
2023-01-13T13:15:19.300Z,60.94
2023-01-13T13:18:08.631Z,61.10
2023-01-13T13:21:03.743Z,61.07
2023-01-13T13:24:02.967Z,61.70
2023-01-13T13:26:46.745Z,61.62
2023-01-13T13:29:54.119Z,60.93
2023-01-13T13:32:56.923Z,60.99
2023-01-13T13:35:51.885Z,61.30
2023-01-13T13:39:00.023Z,61.59
2023-01-13T13:41:46.305Z,61.86
2023-01-13T13:44:38.746Z,62.21
2023-01-13T13:47:08.293Z,62.25
2023-01-13T13:49:41.592Z,61.72
2023-01-13T13:52:19.817Z,61.38
2023-01-13T13:54:52.677Z,61.37
2023-01-13T13:57:28.146Z,61.15
2023-01-13T14:00:00.213Z,61.08
2023-01-13T14:02:32.355Z,61.72
2023-01-13T14:05:20.383Z,61.01
2023-01-13T14:07:51.423Z,60.65
2023-01-13T14:10:25.779Z,60.56
2023-01-13T14:12:53.871Z,60.38
2023-01-13T14:15:33.227Z,60.47
2023-01-13T14:18:05.233Z,60.33
2023-01-13T14:20:36.845Z,59.37
2023-01-13T14:23:06.717Z,59.17
2023-01-13T14:25:39.673Z,58.89
2023-01-13T14:28:28.652Z,58.93
2023-01-13T14:30:58.230Z,58.55
2023-01-13T14:33:38.812Z,58.97
2023-01-13T14:36:20.773Z,59.09
2023-01-13T14:39:12.483Z,58.21
2023-01-13T14:41:50.717Z,58.04
2023-01-13T14:44:27.986Z,57.14
2023-01-13T14:46:59.939Z,58.18
2023-01-13T14:49:38.707Z,56.92
2023-01-13T14:52:16.442Z,57.03
2023-01-13T14:54:52.722Z,57.12
2023-01-13T14:57:32.426Z,56.94
2023-01-13T15:00:19.709Z,56.82
2023-01-13T15:02:50.893Z,57.09
2023-01-13T15:05:36.238Z,57.12
2023-01-13T15:08:20.545Z,57.52
2023-01-13T15:10:52.724Z,57.56
2023-01-13T15:13:35.288Z,56.11
2023-01-13T15:16:07.356Z,56.82
2023-01-13T15:18:39.952Z,56.51
2023-01-13T15:21:09.191Z,56.58
2023-01-13T15:23:39.931Z,57.04
2023-01-13T15:26:19.874Z,56.95
2023-01-13T15:28:50.185Z,56.47
2023-01-13T15:31:18.706Z,57.21
2023-01-13T15:33:46.776Z,56.85
2023-01-13T15:36:27.204Z,57.12
2023-01-13T15:38:55.770Z,56.64
2023-01-13T15:41:38.027Z,56.42
2023-01-13T15:44:24.901Z,56.66
2023-01-13T15:46:53.584Z,56.65
2023-01-13T15:49:34.583Z,57.03
2023-01-13T15:52:04.249Z,56.69
2023-01-13T15:54:32.612Z,57.13
2023-01-13T15:57:00.676Z,57.69
2023-01-13T15:59:30.047Z,57.30
2023-01-13T16:01:58.062Z,57.70
2023-01-13T16:04:26.071Z,57.83
2023-01-13T16:06:55.260Z,58.30
2023-01-13T16:09:24.120Z,58.42
2023-01-13T16:11:54.093Z,58.55
2023-01-13T16:14:24.229Z,58.34
2023-01-13T16:16:55.784Z,58.38
2023-01-13T16:19:24.161Z,58.49
2023-01-13T16:21:56.478Z,59.35
2023-01-13T16:24:25.539Z,59.11
2023-01-13T16:26:55.575Z,59.01
2023-01-13T16:29:24.302Z,59.39
2023-01-13T16:31:55.220Z,59.92
2023-01-13T16:34:24.444Z,60.15
2023-01-13T16:36:52.508Z,60.79
2023-01-13T16:39:22.997Z,60.90
2023-01-13T16:41:51.959Z,60.36
2023-01-13T16:44:21.387Z,60.43
2023-01-13T16:46:51.522Z,60.30
2023-01-13T16:49:20.917Z,60.56
2023-01-13T16:51:48.827Z,60.58
2023-01-13T16:54:16.700Z,60.51
2023-01-13T16:56:45.188Z,60.55
2023-01-13T16:59:15.114Z,60.48
2023-01-13T17:01:45.772Z,61.07
2023-01-13T17:04:17.399Z,60.92
2023-01-13T17:06:56.900Z,61.18
2023-01-13T17:09:28.550Z,60.99
2023-01-13T17:11:57.701Z,61.54
2023-01-13T17:14:27.185Z,61.80
2023-01-13T17:17:00.552Z,61.90
2023-01-13T17:19:28.719Z,62.25
2023-01-13T17:21:58.103Z,63.13
2023-01-13T17:24:28.695Z,63.61
2023-01-13T17:26:57.450Z,65.12
2023-01-13T17:29:27.633Z,66.06
2023-01-13T17:31:56.199Z,66.03
2023-01-13T17:34:24.228Z,65.58
2023-01-13T17:36:52.353Z,65.46
2023-01-13T17:39:25.153Z,65.50
2023-01-13T17:41:55.836Z,65.99
2023-01-13T17:44:24.283Z,66.00
2023-01-13T17:46:52.312Z,66.25
2023-01-13T17:49:22.009Z,66.54
2023-01-13T17:51:51.403Z,66.57
2023-01-13T17:54:21.072Z,66.82
2023-01-13T17:56:49.159Z,66.72
2023-01-13T17:59:20.226Z,66.83
2023-01-13T18:01:50.708Z,66.22
2023-01-13T18:04:28.708Z,66.46
2023-01-13T18:06:59.863Z,66.11
2023-01-13T18:09:36.521Z,66.14
2023-01-13T18:12:12.668Z,66.02
2023-01-13T18:14:48.389Z,65.82
2023-01-13T18:17:36.984Z,66.01
2023-01-13T18:20:39.402Z,65.81
2023-01-13T18:23:39.610Z,66.23
2023-01-13T18:26:55.576Z,66.48
2023-01-13T18:29:27.739Z,66.92
2023-01-13T18:32:02.321Z,66.83
2023-01-13T18:34:46.007Z,66.68
2023-01-13T18:37:26.608Z,67.11
2023-01-13T18:39:54.867Z,67.04
2023-01-13T18:42:45.904Z,66.89
2023-01-13T18:45:18.315Z,66.41
2023-01-13T18:47:54.337Z,66.79
2023-01-13T18:50:31.530Z,66.90
2023-01-13T18:53:04.684Z,66.95
2023-01-13T18:55:32.733Z,66.66
2023-01-13T18:58:02.287Z,66.40
2023-01-13T19:00:36.321Z,66.75
2023-01-13T19:05:35.566Z,66.62
2023-01-13T19:08:03.505Z,66.51
2023-01-13T19:10:32.501Z,66.46
2023-01-13T19:13:02.513Z,66.49
2023-01-13T19:15:31.117Z,65.94
2023-01-13T19:17:59.231Z,66.27
2023-01-13T19:20:27.325Z,66.55
2023-01-13T19:22:55.366Z,66.72
2023-01-13T19:25:23.349Z,66.16
2023-01-13T19:27:51.296Z,66.70
2023-01-13T19:30:21.027Z,66.72
2023-01-13T19:32:48.792Z,66.11
2023-01-13T19:35:20.031Z,66.38
2023-01-13T19:37:47.919Z,65.87
2023-01-13T19:40:16.743Z,66.30
2023-01-13T19:43:02.923Z,66.15
2023-01-13T19:45:35.162Z,66.41
2023-01-13T19:48:05.319Z,66.46
2023-01-13T19:50:38.538Z,66.47
2023-01-13T19:53:07.347Z,66.59
2023-01-13T19:55:35.435Z,66.75
2023-01-13T19:58:03.854Z,66.56
2023-01-13T20:00:33.348Z,67.06
2023-01-13T20:03:03.477Z,67.17
2023-01-13T20:05:31.934Z,67.50
2023-01-13T20:07:59.917Z,67.32
2023-01-13T20:10:30.349Z,67.37
2023-01-13T20:12:58.392Z,67.63
2023-01-13T20:15:26.464Z,67.56
2023-01-13T20:17:57.295Z,68.24
2023-01-13T20:20:27.937Z,67.85
2023-01-13T20:22:55.937Z,68.01
2023-01-13T20:25:24.163Z,67.94
2023-01-13T20:27:52.863Z,67.87
2023-01-13T20:30:21.074Z,67.95
2023-01-13T20:32:49.248Z,70.13
2023-01-13T20:35:18.855Z,67.30
2023-01-13T20:37:46.860Z,68.04
2023-01-13T20:40:17.875Z,67.73
2023-01-13T20:42:45.291Z,67.93
2023-01-13T20:45:20.721Z,67.91
2023-01-13T20:47:49.177Z,67.92
2023-01-13T20:50:18.874Z,67.72
2023-01-13T20:52:47.335Z,68.00
2023-01-13T20:55:15.898Z,67.77
2023-01-13T20:57:48.749Z,67.87
2023-01-13T21:00:18.203Z,68.11
2023-01-13T21:02:46.284Z,68.09
2023-01-13T21:05:14.309Z,67.98
2023-01-13T21:07:43.639Z,67.71
2023-01-13T21:10:12.364Z,67.90
2023-01-13T21:12:54.272Z,67.79
2023-01-13T21:15:22.861Z,67.98
2023-01-13T21:18:10.506Z,67.76
2023-01-13T21:20:40.117Z,67.91
2023-01-13T21:23:10.830Z,67.55
2023-01-13T21:25:40.059Z,67.78
2023-01-13T21:28:11.201Z,67.88
2023-01-13T21:30:39.999Z,68.15
2023-01-13T21:33:08.120Z,67.99
2023-01-13T21:35:39.923Z,68.29
2023-01-13T21:38:11.319Z,68.02
2023-01-13T21:40:39.271Z,67.87
2023-01-13T21:43:24.019Z,68.42
2023-01-13T21:46:09.542Z,68.38
2023-01-13T21:48:37.587Z,68.27
2023-01-13T21:51:05.845Z,68.43
2023-01-13T21:53:35.224Z,68.03
2023-01-13T21:56:03.539Z,68.19
2023-01-13T21:58:31.584Z,68.24
2023-01-13T22:01:03.814Z,68.37
2023-01-13T22:03:54.587Z,68.72
2023-01-13T22:06:22.970Z,68.52
2023-01-13T22:08:53.874Z,68.82
2023-01-13T22:11:21.940Z,68.71
2023-01-13T22:14:09.298Z,68.47
2023-01-13T22:16:41.572Z,68.60
2023-01-13T22:19:12.444Z,68.66
2023-01-13T22:21:40.708Z,68.60
2023-01-13T22:24:10.902Z,69.04
2023-01-13T22:26:39.206Z,68.87
2023-01-13T22:29:07.191Z,68.80
2023-01-13T22:31:38.943Z,68.75
2023-01-13T22:34:06.962Z,68.57
2023-01-13T22:36:34.911Z,68.48
2023-01-13T22:39:02.911Z,68.60
2023-01-13T22:41:32.305Z,68.59
2023-01-13T22:44:00.259Z,68.71
2023-01-13T22:46:28.184Z,68.68
2023-01-13T22:48:56.136Z,68.72
2023-01-13T22:51:24.247Z,69.44
2023-01-13T22:53:52.214Z,69.04
2023-01-13T22:56:25.073Z,69.35
2023-01-13T22:58:56.718Z,69.17
2023-01-13T23:01:27.561Z,69.25
2023-01-13T23:03:55.834Z,69.00
2023-01-13T23:06:26.816Z,69.07
2023-01-13T23:08:55.571Z,69.08
2023-01-13T23:11:29.458Z,69.25
2023-01-13T23:14:04.820Z,69.35
2023-01-13T23:16:36.613Z,69.62
2023-01-13T23:19:06.036Z,69.86
2023-01-13T23:21:37.329Z,69.80
2023-01-13T23:24:07.416Z,70.09
2023-01-13T23:26:37.582Z,70.28
2023-01-13T23:29:09.584Z,70.59
2023-01-13T23:31:37.589Z,70.33
2023-01-13T23:34:05.647Z,70.67
2023-01-13T23:36:36.797Z,70.58
2023-01-13T23:39:05.076Z,70.96
2023-01-13T23:41:33.007Z,70.93
2023-01-13T23:44:02.175Z,71.37
2023-01-13T23:46:33.779Z,71.42
2023-01-13T23:49:03.477Z,71.99
2023-01-13T23:51:31.736Z,71.60
2023-01-13T23:54:01.449Z,71.29
2023-01-13T23:56:32.371Z,71.85
2023-01-13T23:59:04.419Z,72.23
